Time;durP1;ratioP1;P1;durP2;ratioP2;P2;SDS_P1;SDS_P2;PMS_P1;PMS_P2;Temp;Humidity;BMP_temperature;BMP_pressure;BME280_temperature;BME280_humidity;BME280_pressure;Samples;Min_cycle;Max_cycle;Signal;HPM_P1;HPM_P2
2024/01/20 00:00:54;;;;;;;1999.90;999.90;;;;;;;-1.61;100.00;102501.78;10335484;28;20456;-67
2024/01/20 00:05:56;;;;;;;1999.90;999.90;;;;;;;-1.43;100.00;102498.72;10335303;28;20062;-67
2024/01/20 00:10:59;;;;;;;1999.90;999.90;;;;;;;-1.42;100.00;102492.72;10335724;28;20077;-67
2024/01/20 00:16:01;;;;;;;1999.90;999.90;;;;;;;-1.54;100.00;102492.50;10335602;28;20085;-67
2024/01/20 00:21:04;;;;;;;1999.90;999.90;;;;;;;-1.62;100.00;102506.88;10333632;28;20043;-67
2024/01/20 00:26:06;;;;;;;1999.90;999.90;;;;;;;-1.73;100.00;102512.66;10334614;28;20068;-67
2024/01/20 00:31:09;;;;;;;1999.90;999.90;;;;;;;-1.59;100.00;102515.53;10334250;28;20130;-67
2024/01/20 00:36:11;;;;;;;1999.90;999.90;;;;;;;-1.61;100.00;102506.91;10334891;28;20057;-67
2024/01/20 00:41:14;;;;;;;1999.90;999.90;;;;;;;-1.54;100.00;102515.63;10334795;28;20050;-67
2024/01/20 00:46:20;;;;;;;1999.90;999.90;;;;;;;-1.50;100.00;102518.28;10332945;28;20050;-67
2024/01/20 00:51:23;;;;;;;1999.90;999.90;;;;;;;-1.51;100.00;102505.41;10333685;28;20150;-67
2024/01/20 00:56:25;;;;;;;1999.90;999.90;;;;;;;-1.53;100.00;102504.50;10334461;28;20050;-67
2024/01/20 01:01:27;;;;;;;1999.90;999.90;;;;;;;-1.54;100.00;102508.78;10334360;28;20042;-67
2024/01/20 01:06:30;;;;;;;1999.90;999.90;;;;;;;-1.58;100.00;102511.25;10334268;28;20054;-67
2024/01/20 01:11:32;;;;;;;1999.90;999.90;;;;;;;-1.61;100.00;102504.34;10334100;28;20050;-67
2024/01/20 01:16:34;;;;;;;1999.90;999.90;;;;;;;-1.56;100.00;102525.88;10334145;28;20058;-67
2024/01/20 01:21:37;;;;;;;1999.90;999.90;;;;;;;-1.46;100.00;102538.88;10332286;28;20584;-67
2024/01/20 01:26:40;;;;;;;1999.90;999.90;;;;;;;-1.38;100.00;102532.19;10331971;28;20428;-67
2024/01/20 01:31:44;;;;;;;1999.90;999.90;;;;;;;-1.42;100.00;102528.69;10333799;28;20050;-67
2024/01/20 01:36:46;;;;;;;1999.90;999.90;;;;;;;-1.35;100.00;102517.69;10333762;28;20050;-67
2024/01/20 01:41:49;;;;;;;1999.90;999.90;;;;;;;-1.43;100.00;102524.41;10332365;28;20576;-67
2024/01/20 01:46:51;;;;;;;1999.90;999.90;;;;;;;-1.60;100.00;102529.19;10332437;28;20058;-67
2024/01/20 01:51:54;;;;;;;1999.90;999.90;;;;;;;-1.44;100.00;102532.09;10316027;28;20407;-67
2024/01/20 01:56:59;;;;;;;1999.90;999.90;;;;;;;-1.57;100.00;102542.09;10332245;28;20137;-67
2024/01/20 02:02:02;;;;;;;1999.90;999.90;;;;;;;-1.42;100.00;102548.41;10335687;28;20050;-67
2024/01/20 02:07:05;;;;;;;1999.90;999.90;;;;;;;-1.59;100.00;102551.47;10340522;28;20089;-68
2024/01/20 02:12:07;;;;;;;1999.90;999.90;;;;;;;-1.43;100.00;102569.78;10323017;28;20129;-67
2024/01/20 02:17:10;;;;;;;1999.90;999.90;;;;;;;-1.42;100.00;102579.22;10322707;28;20548;-68
2024/01/20 02:22:13;;;;;;;1999.90;999.90;;;;;;;-1.46;100.00;102586.00;10339321;28;20092;-68
2024/01/20 02:27:17;;;;;;;1999.90;999.90;;;;;;;-1.47;100.00;102570.56;10338507;28;20482;-67
2024/01/20 02:32:19;;;;;;;1999.90;999.90;;;;;;;-1.43;100.00;102573.25;10338865;28;20125;-68
2024/01/20 02:37:22;;;;;;;1999.90;999.90;;;;;;;-1.35;100.00;102569.09;10338816;28;20531;-68
2024/01/20 02:42:24;;;;;;;1999.90;999.90;;;;;;;-1.32;100.00;102583.72;10339172;28;20052;-68
2024/01/20 02:47:27;;;;;;;1999.90;999.90;;;;;;;-1.50;100.00;102576.50;10337299;28;20490;-67
2024/01/20 02:52:29;;;;;;;1999.90;999.90;;;;;;;-1.47;100.00;102575.69;10336957;28;20049;-68
2024/01/20 02:57:32;;;;;;;1999.90;999.90;;;;;;;-1.43;100.00;102573.25;10336888;28;20417;-68
2024/01/20 03:02:34;;;;;;;1999.90;999.90;;;;;;;-1.60;100.00;102579.69;10337251;28;20046;-68
2024/01/20 03:07:37;;;;;;;1999.90;999.90;;;;;;;-1.53;100.00;102582.44;10338279;28;20050;-68
2024/01/20 03:12:39;;;;;;;1999.90;999.90;;;;;;;-1.37;100.00;102585.34;10335947;28;20133;-68
2024/01/20 03:17:41;;;;;;;1999.90;999.90;;;;;;;-1.55;100.00;102562.69;10337252;28;20054;-68
2024/01/20 03:22:44;;;;;;;1999.90;999.90;;;;;;;-1.45;100.00;102582.59;10336790;28;20512;-68
2024/01/20 03:27:46;;;;;;;1999.90;999.90;;;;;;;-1.56;100.00;102577.25;10336361;28;20055;-68
2024/01/20 03:32:49;;;;;;;1999.90;999.90;;;;;;;-1.56;100.00;102573.81;10336962;28;20497;-68
2024/01/20 03:37:52;;;;;;;1999.90;999.90;;;;;;;-1.46;100.00;102583.44;10336934;28;20528;-67
2024/01/20 03:42:54;;;;;;;1999.90;999.90;;;;;;;-1.49;100.00;102596.22;10336863;28;20039;-67
2024/01/20 03:47:56;;;;;;;1999.90;999.90;;;;;;;-1.62;100.00;102602.78;10335515;28;20054;-67
2024/01/20 03:52:59;;;;;;;1999.90;999.90;;;;;;;-1.46;100.00;102604.00;10336370;28;20050;-67
2024/01/20 03:58:01;;;;;;;1999.90;999.90;;;;;;;-1.62;100.00;102592.50;10336267;28;20129;-67
2024/01/20 04:03:04;;;;;;;1999.90;999.90;;;;;;;-1.64;100.00;102614.72;10334792;28;20549;-67
2024/01/20 04:08:06;;;;;;;1999.90;999.90;;;;;;;-1.65;100.00;102607.00;10336385;28;20050;-67
2024/01/20 04:13:09;;;;;;;1999.90;999.90;;;;;;;-1.66;100.00;102613.84;10335610;28;20052;-67
2024/01/20 04:18:11;;;;;;;1999.90;999.90;;;;;;;-1.56;100.00;102609.78;10334913;28;20379;-67
2024/01/20 04:23:14;;;;;;;1999.90;999.90;;;;;;;-1.49;100.00;102596.22;10334625;28;20480;-67
2024/01/20 04:28:16;;;;;;;1999.90;999.90;;;;;;;-1.60;100.00;102592.53;10334587;28;20401;-67
2024/01/20 04:33:18;;;;;;;1999.90;999.90;;;;;;;-1.48;100.00;102604.78;10335004;28;20047;-67
2024/01/20 04:38:21;;;;;;;1999.90;999.90;;;;;;;-1.52;100.00;102611.56;10333176;28;20478;-67
2024/01/20 04:43:23;;;;;;;1999.90;999.90;;;;;;;-1.63;100.00;102623.28;10334137;28;20412;-67
2024/01/20 04:48:26;;;;;;;1999.90;999.90;;;;;;;-1.63;100.00;102613.91;10333530;28;20046;-66
2024/01/20 04:53:29;;;;;;;1999.90;999.90;;;;;;;-1.58;100.00;102609.75;10333848;28;20501;-66
2024/01/20 04:58:31;;;;;;;1999.90;999.90;;;;;;;-1.57;100.00;102626.88;10332706;28;20125;-67
2024/01/20 05:03:34;;;;;;;1999.90;999.90;;;;;;;-1.49;100.00;102627.06;10333755;28;20157;-67
2024/01/20 05:08:36;;;;;;;1999.90;999.90;;;;;;;-1.40;100.00;102629.81;10334712;28;20109;-67
2024/01/20 05:13:38;;;;;;;1999.90;999.90;;;;;;;-1.48;100.00;102643.31;10332330;28;20046;-67
2024/01/20 05:18:41;;;;;;;1999.90;999.90;;;;;;;-1.56;100.00;102650.88;10334109;28;20050;-67
2024/01/20 05:23:43;;;;;;;1999.90;999.90;;;;;;;-1.39;100.00;102649.53;10316401;28;20055;-67
2024/01/20 05:28:46;;;;;;;1999.90;999.90;;;;;;;-1.40;100.00;102652.06;10334327;28;20050;-67
2024/01/20 05:33:48;;;;;;;1999.90;999.90;;;;;;;-1.46;100.00;102664.78;10348200;28;20402;-66
2024/01/20 05:38:51;;;;;;;1999.90;999.90;;;;;;;-1.43;100.00;102662.28;10338668;28;20486;-66
2024/01/20 05:43:53;;;;;;;1999.90;999.90;;;;;;;-1.46;100.00;102667.34;10341489;28;20081;-67
2024/01/20 05:48:55;;;;;;;1999.90;999.90;;;;;;;-1.33;100.00;102675.38;10339974;28;20516;-67
2024/01/20 05:53:58;;;;;;;1999.90;999.90;;;;;;;-1.46;100.00;102681.06;10340361;28;20490;-67
2024/01/20 05:59:00;;;;;;;1999.90;999.90;;;;;;;-1.35;100.00;102678.75;10339592;28;20506;-67
2024/01/20 06:04:04;;;;;;;1999.90;999.90;;;;;;;-1.39;100.00;102675.25;10340649;28;20053;-67
2024/01/20 06:09:06;;;;;;;1999.90;999.90;;;;;;;-1.47;100.00;102674.19;10338794;28;20086;-67
2024/01/20 06:14:09;;;;;;;1999.90;999.90;;;;;;;-1.33;100.00;102670.25;10340086;28;20532;-67
2024/01/20 06:19:12;;;;;;;1999.90;999.90;;;;;;;-1.53;100.00;102686.88;10340117;28;20129;-67
2024/01/20 06:24:16;;;;;;;1999.90;999.90;;;;;;;-1.50;100.00;102695.56;10338429;28;20058;-67
2024/01/20 06:29:18;;;;;;;1999.90;999.90;;;;;;;-1.54;100.00;102686.03;10340248;28;20054;-67
2024/01/20 06:34:21;;;;;;;1999.90;999.90;;;;;;;-1.29;100.00;102678.00;10339706;28;20054;-67
2024/01/20 06:39:24;;;;;;;1999.90;999.90;;;;;;;-1.39;100.00;102685.50;10339410;28;20084;-67
2024/01/20 06:44:26;;;;;;;1999.90;999.90;;;;;;;-1.57;100.00;102693.66;10338533;28;20565;-67
2024/01/20 06:49:28;;;;;;;1999.90;999.90;;;;;;;-1.54;100.00;102691.16;10337720;28;20089;-67
2024/01/20 06:54:31;;;;;;;1999.90;999.90;;;;;;;-1.48;100.00;102705.84;10338751;28;20101;-67
2024/01/20 06:59:34;;;;;;;1999.90;999.90;;;;;;;-1.53;100.00;102707.44;10338652;28;20057;-67
2024/01/20 07:04:37;;;;;;;1999.90;999.90;;;;;;;-1.52;100.00;102710.06;10336676;28;20508;-67
2024/01/20 07:09:40;;;;;;;1999.90;999.90;;;;;;;-1.62;100.00;102692.69;10338292;28;20057;-67
2024/01/20 07:14:43;;;;;;;1999.90;999.90;;;;;;;-1.58;100.00;102699.66;10337388;28;20512;-67
2024/01/20 07:19:45;;;;;;;1999.90;999.90;;;;;;;-1.41;100.00;102702.59;10337741;28;20553;-67
2024/01/20 07:24:48;;;;;;;1999.90;999.90;;;;;;;-1.56;100.00;102709.97;10336882;28;20453;-67
2024/01/20 07:29:50;;;;;;;1999.90;999.90;;;;;;;-1.62;100.00;102718.38;10337459;28;20133;-67
2024/01/20 07:34:53;;;;;;;1999.90;999.90;;;;;;;-1.40;100.00;102712.03;10337167;28;20054;-67
2024/01/20 07:39:55;;;;;;;1999.90;999.90;;;;;;;-1.52;100.00;102716.91;10335890;28;20074;-67
2024/01/20 07:44:58;;;;;;;1999.90;999.90;;;;;;;-1.46;100.00;102732.47;10336861;28;20046;-67
2024/01/20 07:50:01;;;;;;;1999.90;999.90;;;;;;;-1.36;100.00;102726.72;10318851;28;20054;-67
2024/01/20 07:55:04;;;;;;;1999.90;999.90;;;;;;;-1.31;100.00;102740.53;10335763;28;20445;-67
2024/01/20 08:00:08;;;;;;;1999.90;999.90;;;;;;;-1.37;100.00;102737.81;10334750;28;20050;-67
2024/01/20 08:05:11;;;;;;;1999.90;999.90;;;;;;;-1.32;100.00;102736.22;10334268;28;20054;-67
2024/01/20 08:10:13;;;;;;;1999.90;999.90;;;;;;;-1.30;100.00;102743.97;10335183;28;20465;-67
2024/01/20 08:15:15;;;;;;;1999.90;999.90;;;;;;;-1.36;100.00;102743.81;10335641;28;20050;-67
2024/01/20 08:20:18;;;;;;;1999.90;999.90;;;;;;;-1.19;100.00;102752.78;10335547;28;20060;-67
2024/01/20 08:25:21;;;;;;;1999.90;999.90;;;;;;;-1.07;100.00;102752.19;10335150;28;20092;-67
2024/01/20 08:30:24;;;;;;;1999.90;999.90;;;;;;;-0.83;100.00;102748.41;10334515;28;20051;-68
2024/01/20 08:35:26;;;;;;;1999.90;999.90;;;;;;;-0.93;100.00;102747.34;10333876;28;20054;-67
2024/01/20 08:40:28;;;;;;;1999.90;999.90;;;;;;;-0.72;100.00;102746.94;10316998;28;20508;-67
2024/01/20 08:45:31;;;;;;;1999.90;999.90;;;;;;;-0.64;100.00;102759.94;10334847;28;20125;-67
2024/01/20 08:50:33;;;;;;;1999.90;999.90;;;;;;;-0.71;100.00;102753.81;10334590;28;20061;-67
2024/01/20 08:55:36;;;;;;;1999.90;999.90;;;;;;;-0.75;100.00;102757.16;10334565;28;20050;-67
2024/01/20 09:00:38;;;;;;;1999.90;999.90;;;;;;;-0.10;100.00;102763.56;10333311;28;20043;-67
2024/01/20 09:05:40;;;;;;;1999.90;999.90;;;;;;;-0.07;100.00;102766.22;10334366;28;20085;-68
2024/01/20 09:10:43;;;;;;;1999.90;999.90;;;;;;;-0.31;100.00;102775.22;10335485;28;20417;-68
2024/01/20 09:15:46;;;;;;;1999.90;999.90;;;;;;;0.06;100.00;102778.47;10342521;28;20050;-68
2024/01/20 09:20:48;;;;;;;1999.90;999.90;;;;;;;-0.07;100.00;102776.50;10341756;28;20489;-68
2024/01/20 09:25:51;;;;;;;1999.90;999.90;;;;;;;-0.31;100.00;102776.91;10341946;28;20133;-68
2024/01/20 09:30:53;;;;;;;1999.90;999.90;;;;;;;-0.01;100.00;102774.06;10341918;28;20057;-68
2024/01/20 09:35:55;;;;;;;1999.90;999.90;;;;;;;-0.08;100.00;102779.94;10339247;28;20137;-68
2024/01/20 09:40:58;;;;;;;1999.90;999.90;;;;;;;0.17;100.00;102783.84;10341892;28;20046;-68
2024/01/20 09:46:00;;;;;;;1999.90;999.90;;;;;;;-0.03;100.00;102791.19;10339772;28;20050;-68
2024/01/20 09:51:03;;;;;;;1999.90;999.90;;;;;;;-0.20;100.00;102801.19;10340441;28;20050;-68
2024/01/20 09:56:05;;;;;;;1999.90;999.90;;;;;;;-0.22;100.00;102803.72;10341062;28;20055;-68
2024/01/20 10:01:08;;;;;;;1999.90;999.90;;;;;;;-0.13;100.00;102792.72;10340843;28;20085;-68
2024/01/20 10:06:10;;;;;;;1999.90;999.90;;;;;;;-0.31;100.00;102803.53;10323892;28;20097;-68
2024/01/20 10:11:13;;;;;;;1999.90;999.90;;;;;;;0.06;100.00;102805.94;10361726;28;20497;-68
2024/01/20 10:16:15;;;;;;;1999.90;999.90;;;;;;;-0.08;100.00;102819.44;10373620;28;20053;-68
2024/01/20 10:21:19;;;;;;;1999.90;999.90;;;;;;;0.26;100.00;102821.75;10368012;28;20046;-68
2024/01/20 10:26:23;;;;;;;1999.90;999.90;;;;;;;0.50;100.00;102814.44;10366115;28;20570;-69
2024/01/20 10:31:26;;;;;;;1999.90;999.90;;;;;;;0.74;100.00;102828.59;10366928;28;20100;-68
2024/01/20 10:36:28;;;;;;;1999.90;999.90;;;;;;;0.38;100.00;102827.13;10381985;28;20509;-69
2024/01/20 10:41:34;;;;;;;1999.90;999.90;;;;;;;0.59;100.00;102836.94;10366514;28;20042;-69
2024/01/20 10:46:38;;;;;;;1999.90;999.90;;;;;;;0.44;100.00;102826.34;10366478;28;20042;-65
2024/01/20 10:51:41;;;;;;;1999.90;999.90;;;;;;;0.57;100.00;102827.44;10382355;28;20053;-65
2024/01/20 10:56:44;;;;;;;1999.90;999.90;;;;;;;0.81;100.00;102835.59;10365483;28;20088;-65
2024/01/20 11:01:47;;;;;;;1999.90;999.90;;;;;;;1.02;100.00;102826.44;10365176;28;20084;-65
2024/01/20 11:06:51;;;;;;;1999.90;999.90;;;;;;;0.84;100.00;102820.16;10364235;28;20053;-66
2024/01/20 11:12:06;;;;;;;1999.90;999.90;;;;;;;0.72;100.00;102818.25;10364096;28;20481;-66
2024/01/20 11:17:12;;;;;;;1999.90;999.90;;;;;;;0.99;100.00;102818.66;10347542;28;20478;-66
2024/01/20 11:22:33;;;;;;;1999.90;999.90;;;;;;;0.75;100.00;102814.84;10378135;28;20480;-67
2024/01/20 11:27:46;;;;;;;;;;;;;;;1.70;100.00;102815.31;10376167;28;20054;-67
2024/01/20 11:32:48;;;;;;;1999.90;999.90;;;;;;;1.40;100.00;102796.00;10374971;28;19965;-67
2024/01/20 11:37:53;;;;;;;1999.90;999.90;;;;;;;1.62;100.00;102799.72;10376402;22;20046;-68
2024/01/20 11:43:05;;;;;;;1999.90;999.90;;;;;;;0.95;100.00;102797.09;10319488;28;20077;-68
2024/01/20 11:48:08;;;;;;;1999.90;999.90;;;;;;;1.29;100.00;102776.91;10336049;28;20113;-68
2024/01/20 11:53:16;;;;;;;1999.90;999.90;;;;;;;1.43;100.00;102784.84;10335514;28;20074;-68
2024/01/20 11:58:18;;;;;;;1999.90;999.90;;;;;;;1.27;100.00;102784.66;10335206;28;20129;-68
2024/01/20 12:03:21;;;;;;;1999.90;999.90;;;;;;;1.96;100.00;102774.25;10335578;28;20130;-70
2024/01/20 12:08:24;;;;;;;1999.90;999.90;;;;;;;1.97;100.00;102772.56;10334311;28;20157;-70
2024/01/20 12:13:32;;;;;;;1999.90;999.90;;;;;;;2.74;100.00;102763.72;10334703;28;20134;-70
2024/01/20 12:18:36;;;;;;;1999.90;999.90;;;;;;;2.54;99.08;102760.09;10334031;28;20457;-68
2024/01/20 12:23:39;;;;;;;1999.90;999.90;;;;;;;2.66;98.57;102749.00;10335547;28;20105;-68
2024/01/20 12:28:42;;;;;;;1999.90;999.90;;;;;;;2.34;99.45;102752.22;10334240;28;20050;-68
2024/01/20 12:33:45;;;;;;;1999.90;999.90;;;;;;;2.33;98.23;102747.88;10335194;28;20104;-68
2024/01/20 12:38:47;;;;;;;1999.90;999.90;;;;;;;1.75;99.28;102745.59;10334604;28;20413;-68
2024/01/20 12:43:50;;;;;;;1999.90;999.90;;;;;;;1.90;100.00;102744.91;10333584;28;20074;-68
2024/01/20 12:48:52;;;;;;;1999.90;999.90;;;;;;;2.27;100.00;102746.13;10333661;28;20050;-70
2024/01/20 12:53:55;;;;;;;1999.90;999.90;;;;;;;1.38;100.00;102735.75;10333923;28;20524;-70
2024/01/20 12:58:57;;;;;;;1999.90;999.90;;;;;;;1.71;100.00;102736.97;10333345;28;20149;-68
2024/01/20 13:03:59;;;;;;;1999.90;999.90;;;;;;;1.57;100.00;102730.81;10334405;28;20081;-70
2024/01/20 13:09:02;;;;;;;1999.90;999.90;;;;;;;1.39;100.00;102726.28;10334319;28;20054;-70
2024/01/20 13:14:04;;;;;;;1999.90;999.90;;;;;;;1.44;100.00;102714.31;10333002;28;20050;-67
2024/01/20 13:19:07;;;;;;;1999.90;999.90;;;;;;;1.22;100.00;102706.31;10333396;28;20054;-67
2024/01/20 13:24:09;;;;;;;1999.90;999.90;;;;;;;1.64;100.00;102705.06;10334496;28;20073;-70
2024/01/20 13:29:12;;;;;;;1999.90;999.90;;;;;;;1.50;98.20;102696.31;10332564;28;20050;-70
2024/01/20 13:34:14;;;;;;;1999.90;999.90;;;;;;;1.42;96.61;102688.47;10333216;28;20493;-70
2024/01/20 13:39:16;;;;;;;1999.90;999.90;;;;;;;1.64;95.28;102684.41;10332241;28;20062;-70
2024/01/20 13:44:19;;;;;;;1999.90;999.90;;;;;;;1.59;91.40;102680.91;10315901;28;20470;-70
2024/01/20 13:49:21;;;;;;;1999.90;999.90;;;;;;;1.69;92.29;102684.44;10333020;28;20058;-70
2024/01/20 13:54:24;;;;;;;1999.90;999.90;;;;;;;1.52;88.78;102689.44;10316085;28;20046;-70
2024/01/20 13:59:26;;;;;;;1999.90;999.90;;;;;;;1.98;89.62;102686.44;10338704;28;20409;-69
2024/01/20 14:04:29;;;;;;;1999.90;999.90;;;;;;;1.49;87.19;102692.84;10340203;28;20073;-69
2024/01/20 14:09:31;;;;;;;1999.90;999.90;;;;;;;1.64;88.30;102693.88;10340551;28;20074;-69
2024/01/20 14:14:37;;;;;;;1999.90;999.90;;;;;;;1.57;87.91;102697.25;10338607;28;20050;-69
2024/01/20 14:19:40;;;;;;;1999.90;999.90;;;;;;;1.92;85.22;102701.91;10340368;28;20051;-69
2024/01/20 14:24:43;;;;;;;1999.90;999.90;;;;;;;1.47;83.34;102693.69;10338992;28;20046;-69
2024/01/20 14:29:45;;;;;;;1999.90;999.90;;;;;;;1.29;83.76;102695.22;10339913;28;20086;-69
2024/01/20 14:34:48;;;;;;;1999.90;999.90;;;;;;;1.50;82.16;102688.56;10338970;28;20042;-69
2024/01/20 14:39:50;;;;;;;1999.90;999.90;;;;;;;1.38;84.28;102683.25;10339314;28;20051;-69
2024/01/20 14:44:53;;;;;;;1999.90;999.90;;;;;;;1.19;84.15;102692.50;10339056;28;20401;-69
2024/01/20 14:49:55;;;;;;;1999.90;999.90;;;;;;;1.24;86.34;102702.03;10339153;28;20161;-70
2024/01/20 14:54:58;;;;;;;1999.90;999.90;;;;;;;1.19;86.21;102705.41;10338785;28;20512;-70
2024/01/20 15:00:00;;;;;;;1999.90;999.90;;;;;;;1.11;89.01;102710.50;10338776;28;20129;-70
2024/01/20 15:05:03;;;;;;;1999.90;999.90;;;;;;;0.77;88.22;102698.84;10337794;28;20137;-70
2024/01/20 15:10:06;;;;;;;1999.90;999.90;;;;;;;0.62;88.90;102702.06;10320142;28;20054;-70
2024/01/20 15:15:09;;;;;;;1999.90;999.90;;;;;;;0.66;90.54;102704.72;10338534;28;20049;-70
2024/01/20 15:20:12;;;;;;;1999.90;999.90;;;;;;;0.74;90.62;102702.25;10337974;28;20061;-70
2024/01/20 15:25:18;;;;;;;1999.90;999.90;;;;;;;0.33;88.71;102708.50;10337141;28;20476;-70
2024/01/20 15:30:21;;;;;;;1999.90;999.90;;;;;;;0.36;88.67;102712.84;10336520;28;20078;-70
2024/01/20 15:35:23;;;;;;;1999.90;999.90;;;;;;;0.33;90.53;102708.50;10336630;28;20054;-70
2024/01/20 15:40:25;;;;;;;1999.90;999.90;;;;;;;0.10;92.07;102712.41;10336619;28;20142;-70
2024/01/20 15:45:28;;;;;;;1999.90;999.90;;;;;;;-0.14;90.80;102705.16;10335243;28;20386;-70
2024/01/20 15:50:30;;;;;;;1999.90;999.90;;;;;;;0.27;88.65;102711.00;10336828;28;20050;-70
2024/01/20 15:55:33;;;;;;;1999.90;999.90;;;;;;;-0.26;90.69;102706.66;10336572;28;20055;-70
2024/01/20 16:00:35;;;;;;;1999.90;999.90;;;;;;;-0.14;89.44;102706.00;10335449;28;20129;-70
2024/01/20 16:05:38;;;;;;;1999.90;999.90;;;;;;;-0.38;91.26;102712.44;10336222;28;20081;-70
2024/01/20 16:10:40;;;;;;;1999.90;999.90;;;;;;;-0.28;89.15;102703.19;10335376;28;20058;-70
2024/01/20 16:15:44;;;;;;;1999.90;999.90;;;;;;;-0.23;87.81;102690.41;10336154;28;20082;-70
2024/01/20 16:20:47;;;;;;;1999.90;999.90;;;;;;;-0.47;88.01;102696.84;10335389;28;20124;-70
2024/01/20 16:25:49;;;;;;;1999.90;999.90;;;;;;;-0.43;86.75;102696.03;10334258;28;20133;-70
2024/01/20 16:30:51;;;;;;;1999.90;999.90;;;;;;;-0.50;85.88;102686.50;10333551;28;20116;-70
2024/01/20 16:35:58;;;;;;;1999.90;999.90;;;;;;;-0.44;85.01;102696.00;10333846;28;20482;-70
2024/01/20 16:41:00;;;;;;;1999.90;999.90;;;;;;;-0.38;85.36;102689.28;10334715;28;20093;-70
2024/01/20 16:46:03;;;;;;;1999.90;999.90;;;;;;;-0.43;84.03;102695.19;10333750;28;20046;-70
2024/01/20 16:51:05;;;;;;;1999.90;999.90;;;;;;;-0.36;83.81;102696.16;10333588;28;20055;-70
2024/01/20 16:56:23;;;;;;;1999.90;999.90;;;;;;;-0.48;83.48;102691.66;10319584;28;20053;-70
2024/01/20 17:01:25;;;;;;;1999.90;999.90;;;;;;;-0.42;82.22;102689.19;10333357;28;20057;-70
2024/01/20 17:06:28;;;;;;;1999.90;999.90;;;;;;;-0.29;83.98;102705.72;10334925;28;20051;-70
2024/01/20 17:11:31;;;;;;;1999.90;999.90;;;;;;;-0.03;81.96;102698.47;10334212;28;20050;-70
2024/01/20 17:16:34;;;;;;;1999.90;999.90;;;;;;;-0.05;79.41;102695.88;10334261;28;20050;-70
2024/01/20 17:21:36;;;;;;;1999.90;999.90;;;;;;;-0.06;80.46;102698.44;10332887;28;20477;-70
2024/01/20 17:26:39;;;;;;;1999.90;999.90;;;;;;;0.08;82.72;102693.50;10333397;28;20497;-70
2024/01/20 17:31:41;;;;;;;1999.90;999.90;;;;;;;0.11;81.56;102690.97;10335045;28;20156;-70
2024/01/20 17:36:44;;;;;;;1999.90;999.90;;;;;;;-0.07;80.59;102696.69;10341358;28;20054;-70
2024/01/20 17:41:47;;;;;;;1999.90;999.90;;;;;;;-0.61;80.32;102701.69;10341552;28;20138;-71
2024/01/20 17:46:49;;;;;;;1999.90;999.90;;;;;;;-0.75;80.96;102706.59;10340349;28;20062;-71
2024/01/20 17:51:52;;;;;;;1999.90;999.90;;;;;;;-0.66;82.38;102695.59;10340714;28;20050;-70
2024/01/20 17:56:54;;;;;;;1999.90;999.90;;;;;;;-0.54;82.32;102682.09;10341227;28;20046;-70
2024/01/20 18:01:57;;;;;;;1999.90;999.90;;;;;;;-0.58;82.77;102673.47;10339829;28;20054;-70
2024/01/20 18:06:59;;;;;;;1999.90;999.90;;;;;;;-0.48;81.99;102676.22;10340835;28;20050;-70
2024/01/20 18:12:02;;;;;;;1999.90;999.90;;;;;;;-0.73;82.22;102686.03;10339965;28;20081;-70
2024/01/20 18:17:05;;;;;;;1999.90;999.90;;;;;;;-0.65;82.70;102681.06;10339836;28;20409;-70
2024/01/20 18:22:07;;;;;;;1999.90;999.90;;;;;;;-1.01;82.58;102685.50;10340254;28;20121;-70
2024/01/20 18:27:10;;;;;;;1999.90;999.90;;;;;;;-0.75;82.84;102688.56;10340056;28;20053;-70
2024/01/20 18:32:13;;;;;;;1999.90;999.90;;;;;;;-0.72;84.21;102687.78;10338693;28;20050;-70
2024/01/20 18:37:16;;;;;;;1999.90;999.90;;;;;;;-0.64;81.45;102682.78;10339668;28;20054;-71
2024/01/20 18:42:19;;;;;;;1999.90;999.90;;;;;;;-0.83;82.04;102673.84;10337835;28;20504;-70
2024/01/20 18:47:22;;;;;;;1999.90;999.90;;;;;;;-0.72;82.35;102664.63;10339268;28;20046;-70
2024/01/20 18:52:24;;;;;;;1999.90;999.90;;;;;;;-0.67;82.45;102669.84;10339025;28;20046;-70
2024/01/20 18:57:26;;;;;;;1999.90;999.90;;;;;;;-0.82;82.10;102663.56;10337726;28;20085;-70
2024/01/20 19:02:29;;;;;;;1999.90;999.90;;;;;;;-0.90;82.38;102664.28;10338026;28;20051;-70
2024/01/20 19:07:31;;;;;;;1999.90;999.90;;;;;;;-0.89;82.95;102643.72;10338525;28;20061;-70
2024/01/20 19:12:35;;;;;;;1999.90;999.90;;;;;;;-0.88;81.78;102635.16;10337661;28;20077;-71
2024/01/20 19:17:37;;;;;;;1999.90;999.90;;;;;;;-1.00;82.41;102634.91;10338187;28;20061;-70
2024/01/20 19:22:40;;;;;;;1999.90;999.90;;;;;;;-1.02;82.38;102639.19;10336830;28;20053;-70
2024/01/20 19:27:42;;;;;;;1999.90;999.90;;;;;;;-1.15;83.56;102640.63;10337873;28;20050;-71
2024/01/20 19:32:45;;;;;;;1999.90;999.90;;;;;;;-1.18;82.96;102632.84;10335768;28;20463;-71
2024/01/20 19:37:47;;;;;;;1999.90;999.90;;;;;;;-1.34;83.23;102624.81;10336591;28;20104;-70
2024/01/20 19:42:50;;;;;;;1999.90;999.90;;;;;;;-1.34;82.68;102627.38;10335868;28;20491;-71
2024/01/20 19:47:52;;;;;;;1999.90;999.90;;;;;;;-1.20;84.87;102621.66;10336300;28;20085;-70
2024/01/20 19:52:56;;;;;;;1999.90;999.90;;;;;;;-1.23;83.45;102621.59;10336087;28;20053;-70
2024/01/20 19:57:59;;;;;;;1999.90;999.90;;;;;;;-1.26;85.04;102611.25;10334822;28;20056;-70
2024/01/20 20:03:01;;;;;;;1999.90;999.90;;;;;;;-1.50;84.90;102612.47;10336321;28;20052;-70
2024/01/20 20:08:04;;;;;;;1999.90;999.90;;;;;;;-1.34;85.43;102608.53;10318859;28;20481;-71
2024/01/20 20:13:06;;;;;;;1999.90;999.90;;;;;;;-1.56;85.16;102599.50;10335963;28;20101;-70
2024/01/20 20:18:08;;;;;;;1999.90;999.90;;;;;;;-1.43;85.60;102595.47;10335803;28;20058;-70
2024/01/20 20:23:11;;;;;;;1999.90;999.90;;;;;;;-1.45;84.12;102587.72;10334312;28;20129;-70
2024/01/20 20:28:13;;;;;;;1999.90;999.90;;;;;;;-1.53;85.07;102587.59;10335454;28;20060;-70
2024/01/20 20:33:16;;;;;;;1999.90;999.90;;;;;;;-1.69;84.81;102576.09;10334056;28;20085;-70
2024/01/20 20:38:19;;;;;;;1999.90;999.90;;;;;;;-1.47;85.04;102570.56;10334447;28;20093;-69
2024/01/20 20:43:21;;;;;;;1999.90;999.90;;;;;;;-1.82;86.55;102561.25;10333847;28;20053;-70
2024/01/20 20:48:24;;;;;;;1999.90;999.90;;;;;;;-1.70;85.34;102543.56;10334784;28;20054;-69
2024/01/20 20:53:27;;;;;;;1999.90;999.90;;;;;;;-1.74;85.89;102546.03;10334026;28;20060;-70
2024/01/20 20:58:29;;;;;;;1999.90;999.90;;;;;;;-1.56;85.77;102538.72;10332788;28;20512;-69
2024/01/20 21:03:32;;;;;;;1999.90;999.90;;;;;;;-1.77;84.38;102530.53;10333396;28;20080;-69
2024/01/20 21:08:34;;;;;;;1999.90;999.90;;;;;;;-1.79;84.88;102516.81;10332864;28;20050;-69
2024/01/20 21:13:36;;;;;;;1999.90;999.90;;;;;;;-1.93;85.10;102506.25;10334245;28;20057;-70
2024/01/20 21:18:39;;;;;;;1999.90;999.90;;;;;;;-1.72;85.55;102513.53;10333077;28;20053;-70
2024/01/20 21:23:41;;;;;;;1999.90;999.90;;;;;;;-1.65;83.60;102512.81;10333431;28;20482;-69
2024/01/20 21:28:44;;;;;;;1999.90;999.90;;;;;;;-1.64;81.89;102506.84;10333417;28;20517;-69
2024/01/20 21:33:46;;;;;;;1999.90;999.90;;;;;;;-1.66;82.64;102490.56;10333864;28;20046;-69
2024/01/20 21:38:49;;;;;;;1999.90;999.90;;;;;;;-1.40;82.92;102485.06;10333454;28;20062;-69
2024/01/20 21:43:51;;;;;;;1999.90;999.90;;;;;;;-1.48;82.11;102474.63;10333738;28;20050;-69
2024/01/20 21:48:53;;;;;;;1999.90;999.90;;;;;;;-1.50;82.84;102463.44;10333051;28;20513;-69